Terminal Aerodrome Forecast
Issued by NWS Mt. Holly, NJ

Home | Current Version | Previous Version | Text Only | Print | Product List | Glossary On
Versions: 1 2 3 4 5 6 7 8 9 10 11 12 13 14 15 16 17 18 19 20 21 22 23 24 25 26 27
651
FTUS41 KPHI 172353 AAA
TAFACY
TAF AMD
KACY 172353Z 1800/1824 17007KT P6SM SCT060
     FM180200 17007KT P6SM BKN050
     FM180900 18008KT P6SM BKN035 PROB30 1809/1815 4SM -TSRA
      OVC025CB
     FM181800 19012KT P6SM BKN060 PROB30 1818/1820 4SM TSRA OVC040CB
     FM182000 19011KT P6SM SHRA VCTS OVC120CB=

USA.gov is the U.S. government's official web portal to all federal, state and local government web resources and services.